createdAt,value
2023-03-04T00:01:40.653Z,36.25
2023-03-04T00:04:07.738Z,36.97
2023-03-04T00:06:34.651Z,36.72
2023-03-04T00:09:04.066Z,35.53
2023-03-04T00:11:31.443Z,34.22
2023-03-04T00:13:58.679Z,32.22
2023-03-04T00:16:27.578Z,35.42
2023-03-04T00:18:54.587Z,35.50
2023-03-04T00:21:21.712Z,33.72
2023-03-04T00:23:49.401Z,33.95
2023-03-04T00:26:17.219Z,34.67
2023-03-04T00:28:44.492Z,33.42
2023-03-04T00:31:11.715Z,32.58
2023-03-04T00:33:40.548Z,32.70
2023-03-04T00:36:08.315Z,33.72
2023-03-04T00:38:35.400Z,32.15
2023-03-04T00:41:02.584Z,33.15
2023-03-04T00:43:30.085Z,33.08
2023-03-04T00:45:57.155Z,32.40
2023-03-04T00:48:24.175Z,33.08
2023-03-04T00:50:54.012Z,32.65
2023-03-04T00:53:21.388Z,32.53
2023-03-04T00:55:48.465Z,33.92
2023-03-04T00:58:15.414Z,34.60
2023-03-04T01:00:42.409Z,34.75
2023-03-04T01:03:09.361Z,32.25
2023-03-04T01:05:36.280Z,33.25
2023-03-04T01:08:05.341Z,35.10
2023-03-04T01:10:32.796Z,32.50
2023-03-04T01:12:59.704Z,34.85
2023-03-04T01:15:27.318Z,32.47
2023-03-04T01:17:55.092Z,31.85
2023-03-04T01:20:22.136Z,31.40
2023-03-04T01:22:49.053Z,32.40
2023-03-04T01:25:17.503Z,33.38
2023-03-04T01:27:44.658Z,33.40
2023-03-04T01:30:12.651Z,32.03
2023-03-04T01:32:39.655Z,32.55
2023-03-04T01:35:07.690Z,32.03
2023-03-04T01:37:34.676Z,29.63
2023-03-04T01:40:01.934Z,29.45
2023-03-04T01:42:32.622Z,28.02
2023-03-04T01:45:00.089Z,30.48
2023-03-04T01:47:29.707Z,30.63
2023-03-04T01:49:58.653Z,31.83
2023-03-04T01:52:28.144Z,32.05
2023-03-04T01:54:55.575Z,31.13
2023-03-04T01:57:24.257Z,30.83
2023-03-04T02:00:19.682Z,32.20
2023-03-04T02:02:47.550Z,32.35
2023-03-04T02:05:15.053Z,31.77
2023-03-04T02:07:42.548Z,32.33
2023-03-04T02:10:11.211Z,33.45
2023-03-04T02:12:39.007Z,33.20
2023-03-04T02:15:07.756Z,33.08
2023-03-04T02:17:37.209Z,32.80
2023-03-04T02:20:16.917Z,30.38
2023-03-04T02:22:51.407Z,32.58
2023-03-04T02:25:24.158Z,33.10
2023-03-04T02:27:53.156Z,33.63
2023-03-04T02:30:25.449Z,32.10
2023-03-04T02:32:53.052Z,30.65
2023-03-04T02:35:21.020Z,31.88
2023-03-04T02:37:47.984Z,32.40
2023-03-04T02:40:18.655Z,29.50
2023-03-04T02:42:46.209Z,32.47
2023-03-04T02:45:37.129Z,32.75
2023-03-04T02:48:06.843Z,31.23
2023-03-04T02:50:37.852Z,31.50
2023-03-04T02:53:05.687Z,29.80
2023-03-04T02:55:34.039Z,34.05
2023-03-04T02:58:01.475Z,30.27
2023-03-04T03:00:31.888Z,30.83
2023-03-04T03:03:00.481Z,30.83
2023-03-04T03:05:30.091Z,30.25
2023-03-04T03:07:57.376Z,30.35
2023-03-04T03:10:25.066Z,32.08
2023-03-04T03:12:52.321Z,32.25
2023-03-04T03:15:20.137Z,30.95
2023-03-04T03:17:47.527Z,31.02
2023-03-04T03:20:17.205Z,30.83
2023-03-04T03:22:44.416Z,31.60
2023-03-04T03:25:12.944Z,32.13
2023-03-04T03:27:40.196Z,31.73
2023-03-04T03:30:10.112Z,31.50
2023-03-04T03:32:37.207Z,30.38
2023-03-04T03:35:04.560Z,31.52
2023-03-04T03:37:33.471Z,29.70
2023-03-04T03:40:00.558Z,31.60
2023-03-04T03:42:27.563Z,32.35
2023-03-04T03:44:55.969Z,32.28
2023-03-04T03:47:23.030Z,32.03
2023-03-04T03:49:50.068Z,33.00
2023-03-04T03:52:17.033Z,30.88
2023-03-04T03:54:45.368Z,32.72
2023-03-04T03:57:12.330Z,30.60
2023-03-04T03:59:39.234Z,32.38
2023-03-04T04:02:06.343Z,31.98
2023-03-04T04:04:33.397Z,33.55
2023-03-04T04:07:00.384Z,32.35
2023-03-04T04:09:27.311Z,31.67
2023-03-04T04:11:56.510Z,32.50
2023-03-04T04:14:23.434Z,30.85
2023-03-04T04:16:50.493Z,31.10
2023-03-04T04:19:19.300Z,29.42
2023-03-04T04:21:46.389Z,31.27
2023-03-04T04:24:13.607Z,30.42
2023-03-04T04:26:40.964Z,29.67
2023-03-04T04:29:09.973Z,32.05
2023-03-04T04:31:37.175Z,30.70
2023-03-04T04:34:04.078Z,30.67
2023-03-04T04:36:31.026Z,30.48
2023-03-04T04:38:58.198Z,31.00
2023-03-04T04:41:26.801Z,29.10
2023-03-04T04:43:53.947Z,30.27
2023-03-04T04:46:22.320Z,31.60
2023-03-04T04:48:49.934Z,33.42
2023-03-04T04:51:16.960Z,31.42
2023-03-04T04:53:44.869Z,32.60
2023-03-04T04:56:14.146Z,31.83
2023-03-04T04:58:41.587Z,32.55
2023-03-04T05:01:09.419Z,32.05
2023-03-04T05:03:39.029Z,32.22
2023-03-04T05:06:08.116Z,32.15
2023-03-04T05:08:35.834Z,29.80
2023-03-04T05:11:04.000Z,29.08
2023-03-04T05:13:31.260Z,30.42
2023-03-04T05:15:58.646Z,30.15
2023-03-04T05:18:26.807Z,30.40
2023-03-04T05:20:57.015Z,30.38
2023-03-04T05:23:27.478Z,29.27
2023-03-04T05:25:54.521Z,29.02
2023-03-04T05:28:21.720Z,27.75
2023-03-04T05:30:49.351Z,29.45
2023-03-04T05:33:17.453Z,28.00
2023-03-04T05:35:45.268Z,28.73
2023-03-04T05:38:18.921Z,28.30
2023-03-04T05:40:46.408Z,28.90
2023-03-04T05:43:13.468Z,28.20
2023-03-04T05:45:41.687Z,28.30
2023-03-04T05:48:09.101Z,28.08
2023-03-04T05:50:36.334Z,27.70
2023-03-04T05:53:03.444Z,28.48
2023-03-04T05:55:31.814Z,28.33
2023-03-04T05:57:59.173Z,29.33
2023-03-04T06:00:26.617Z,28.77
2023-03-04T06:02:54.042Z,29.52
2023-03-04T06:05:21.575Z,28.00
2023-03-04T06:07:51.332Z,30.83
2023-03-04T06:10:18.526Z,28.83
2023-03-04T06:12:46.978Z,27.85
2023-03-04T06:15:14.609Z,28.35
2023-03-04T06:17:42.456Z,29.83
2023-03-04T06:20:11.066Z,30.08
2023-03-04T06:22:38.246Z,26.27
2023-03-04T06:25:06.031Z,27.67
2023-03-04T06:27:33.036Z,26.50
2023-03-04T06:30:02.083Z,25.80
2023-03-04T06:32:29.307Z,27.23
2023-03-04T06:34:56.341Z,27.23
2023-03-04T06:37:23.504Z,25.25
2023-03-04T06:39:50.720Z,25.92
2023-03-04T06:42:17.780Z,24.73
2023-03-04T06:44:47.163Z,23.27
2023-03-04T06:47:16.641Z,24.17
2023-03-04T06:49:43.595Z,23.85
2023-03-04T06:52:12.890Z,24.92
2023-03-04T06:54:39.999Z,24.55
2023-03-04T06:57:07.636Z,24.42
2023-03-04T06:59:34.983Z,24.60
2023-03-04T07:02:02.404Z,25.17
2023-03-04T07:04:30.763Z,24.33
2023-03-04T07:06:57.829Z,23.05
2023-03-04T07:09:24.752Z,22.33
2023-03-04T07:11:51.697Z,22.67
2023-03-04T07:14:18.665Z,22.90
2023-03-04T07:16:45.602Z,20.98
2023-03-04T07:19:12.582Z,22.42
2023-03-04T07:21:40.890Z,22.35
2023-03-04T07:24:08.034Z,21.88
2023-03-04T07:26:35.047Z,20.50
2023-03-04T07:29:02.085Z,21.35
2023-03-04T07:31:31.028Z,22.35
2023-03-04T07:34:00.077Z,20.42
2023-03-04T07:36:27.368Z,20.38
2023-03-04T07:38:55.814Z,20.33
2023-03-04T07:41:24.835Z,18.23
2023-03-04T07:43:52.149Z,18.90
2023-03-04T07:46:19.667Z,17.48
2023-03-04T07:48:46.680Z,16.83
2023-03-04T07:51:16.481Z,17.20
2023-03-04T07:53:45.653Z,16.95
2023-03-04T07:56:16.915Z,16.90
2023-03-04T07:58:44.464Z,14.10
2023-03-04T08:01:13.030Z,16.85
2023-03-04T08:03:40.243Z,13.80
2023-03-04T08:06:08.435Z,15.05
2023-03-04T08:08:35.641Z,15.48
2023-03-04T08:11:07.516Z,15.88
2023-03-04T08:13:36.372Z,16.55
2023-03-04T08:16:03.976Z,16.75
2023-03-04T08:18:31.045Z,15.00
2023-03-04T08:20:57.962Z,15.15
2023-03-04T08:23:25.428Z,15.18
2023-03-04T08:25:52.421Z,14.07
2023-03-04T08:28:19.645Z,15.05
2023-03-04T08:30:53.284Z,14.75
2023-03-04T08:33:23.588Z,14.95
2023-03-04T08:35:50.953Z,13.75
2023-03-04T08:38:17.935Z,10.18
2023-03-04T08:40:44.880Z,10.05
2023-03-04T08:43:12.007Z,10.82
2023-03-04T08:45:39.206Z,10.68
2023-03-04T08:48:07.669Z,10.65
2023-03-04T08:50:35.960Z,10.88
2023-03-04T08:53:03.146Z,10.95
2023-03-04T08:55:30.076Z,10.88
2023-03-04T08:57:57.348Z,9.13
2023-03-04T09:00:24.301Z,10.40
2023-03-04T09:02:51.211Z,10.05
2023-03-04T09:05:19.555Z,11.20
2023-03-04T09:07:47.264Z,11.32
2023-03-04T09:10:14.337Z,11.93
2023-03-04T09:12:41.366Z,11.25
2023-03-04T09:15:11.890Z,11.80
2023-03-04T09:17:39.652Z,11.15
2023-03-04T09:20:10.052Z,11.90
2023-03-04T09:22:39.073Z,11.10
2023-03-04T09:25:11.468Z,10.80
2023-03-04T09:27:39.760Z,12.35
2023-03-04T09:30:08.374Z,11.68
2023-03-04T09:32:35.386Z,11.98
2023-03-04T09:35:02.338Z,11.73
2023-03-04T09:37:29.981Z,11.30
2023-03-04T09:39:58.376Z,12.00
2023-03-04T09:42:27.596Z,11.88
2023-03-04T09:44:55.472Z,12.93
2023-03-04T09:47:25.014Z,13.07
2023-03-04T09:49:56.803Z,13.82
2023-03-04T09:52:37.893Z,13.15
2023-03-04T09:55:17.824Z,12.07
2023-03-04T09:57:49.416Z,12.50
2023-03-04T10:00:20.194Z,12.85
2023-03-04T10:03:04.163Z,12.48
2023-03-04T10:05:34.417Z,13.05
2023-03-04T10:08:08.070Z,12.20
2023-03-04T10:10:43.898Z,12.95
2023-03-04T10:13:16.553Z,12.02
2023-03-04T10:15:48.212Z,12.60
2023-03-04T10:18:22.151Z,12.95
2023-03-04T10:20:56.386Z,13.02
2023-03-04T10:23:26.430Z,10.65
2023-03-04T10:25:55.919Z,11.82
2023-03-04T10:28:28.115Z,12.25
2023-03-04T10:31:00.584Z,11.90
2023-03-04T10:33:32.167Z,12.05
2023-03-04T10:36:02.494Z,11.57
2023-03-04T10:38:32.591Z,12.50
2023-03-04T10:41:02.034Z,11.57
2023-03-04T10:43:31.851Z,11.63
2023-03-04T10:45:59.030Z,12.77
2023-03-04T10:48:29.286Z,12.55
2023-03-04T10:51:13.543Z,12.20
2023-03-04T10:53:42.704Z,12.23
2023-03-04T10:56:36.440Z,11.23
2023-03-04T10:59:31.176Z,11.57
2023-03-04T11:01:58.407Z,13.00
2023-03-04T11:04:26.331Z,12.45
2023-03-04T11:06:53.839Z,11.10
2023-03-04T11:09:23.678Z,11.73
2023-03-04T11:11:53.548Z,13.07
2023-03-04T11:14:29.531Z,12.07
2023-03-04T11:17:01.676Z,11.35
2023-03-04T11:19:35.684Z,12.73
2023-03-04T11:24:38.505Z,11.43
2023-03-04T11:27:15.436Z,11.77
2023-03-04T11:29:45.632Z,12.13
2023-03-04T11:32:18.783Z,11.43
2023-03-04T11:34:51.926Z,10.82
2023-03-04T11:37:24.513Z,11.02
2023-03-04T11:39:58.551Z,11.73
2023-03-04T11:42:34.983Z,10.23
2023-03-04T11:45:02.304Z,11.45
2023-03-04T11:47:48.499Z,9.95
2023-03-04T11:50:27.731Z,11.52
2023-03-04T11:53:23.546Z,10.05
2023-03-04T11:56:03.138Z,10.55
2023-03-04T11:58:51.036Z,11.32
2023-03-04T12:01:27.234Z,11.27
2023-03-04T12:04:09.921Z,11.63
2023-03-04T12:06:49.708Z,11.60
2023-03-04T12:09:37.300Z,10.75
2023-03-04T12:12:22.929Z,11.07
2023-03-04T12:17:48.912Z,10.38
2023-03-04T12:20:37.156Z,11.20
2023-03-04T12:23:18.141Z,10.80
2023-03-04T12:25:53.465Z,11.07
2023-03-04T12:28:31.419Z,10.18
2023-03-04T12:31:16.256Z,10.60
2023-03-04T12:33:54.971Z,10.82
2023-03-04T12:36:29.773Z,10.35
2023-03-04T12:39:08.358Z,10.57
2023-03-04T12:41:43.806Z,10.13
2023-03-04T12:44:17.029Z,11.02
2023-03-04T12:46:57.153Z,10.95
2023-03-04T12:49:40.660Z,10.80
2023-03-04T12:52:19.425Z,11.15
2023-03-04T12:54:49.960Z,11.00
2023-03-04T12:57:21.251Z,10.60
2023-03-04T12:59:57.740Z,11.40
2023-03-04T13:02:37.634Z,10.52
2023-03-04T13:05:22.492Z,11.88
2023-03-04T13:07:58.760Z,10.40
2023-03-04T13:10:25.866Z,10.20
2023-03-04T13:12:54.833Z,9.77
2023-03-04T13:15:38.407Z,9.65
2023-03-04T13:18:35.631Z,10.13
2023-03-04T13:21:16.806Z,10.52
2023-03-04T13:23:43.815Z,10.07
2023-03-04T13:26:32.214Z,9.32
2023-03-04T13:29:33.090Z,9.52
2023-03-04T13:32:02.537Z,10.15
2023-03-04T13:34:50.596Z,9.90
2023-03-04T13:37:30.226Z,8.77
2023-03-04T13:40:30.555Z,9.15
2023-03-04T13:43:27.582Z,9.18
2023-03-04T13:45:55.397Z,9.70
2023-03-04T13:48:36.398Z,9.70
2023-03-04T13:51:05.009Z,9.13
2023-03-04T13:53:54.724Z,9.93
2023-03-04T13:56:32.068Z,9.40
2023-03-04T13:59:30.263Z,9.73
2023-03-04T14:02:12.748Z,8.98
2023-03-04T14:04:41.338Z,9.02
2023-03-04T14:07:23.882Z,8.02
2023-03-04T14:09:56.596Z,8.77
2023-03-04T14:12:24.263Z,8.57
2023-03-04T14:14:54.308Z,9.00
2023-03-04T14:17:24.106Z,8.65
2023-03-04T14:19:53.839Z,7.82
2023-03-04T14:22:25.841Z,9.13
2023-03-04T14:24:57.647Z,8.50
2023-03-04T14:27:24.600Z,8.02
2023-03-04T14:29:56.511Z,8.48
2023-03-04T14:32:24.280Z,8.70
2023-03-04T14:34:54.673Z,8.02
2023-03-04T14:37:26.539Z,8.10
2023-03-04T14:39:56.984Z,7.63
2023-03-04T14:42:26.870Z,8.43
2023-03-04T14:45:00.960Z,9.00
2023-03-04T14:47:35.517Z,8.73
2023-03-04T14:50:05.686Z,8.77
2023-03-04T14:52:37.508Z,9.13
2023-03-04T14:55:18.800Z,8.60
2023-03-04T14:57:47.469Z,8.15
2023-03-04T15:00:25.224Z,8.63
2023-03-04T15:02:53.674Z,9.60
2023-03-04T15:05:26.246Z,8.15
2023-03-04T15:07:57.074Z,8.48
2023-03-04T15:10:27.353Z,8.40
2023-03-04T15:12:56.970Z,9.23
2023-03-04T15:15:43.637Z,8.43
2023-03-04T15:18:31.958Z,8.75
2023-03-04T15:21:00.605Z,9.15
2023-03-04T15:23:30.477Z,8.65
2023-03-04T15:25:59.510Z,9.15
2023-03-04T15:28:30.364Z,10.00
2023-03-04T15:31:00.452Z,10.73
2023-03-04T15:33:27.869Z,10.43
2023-03-04T15:35:57.198Z,10.77
2023-03-04T15:38:24.566Z,11.50
2023-03-04T15:40:54.682Z,12.50
2023-03-04T15:43:23.244Z,11.85
2023-03-04T15:45:51.692Z,11.30
2023-03-04T15:48:19.586Z,12.13
2023-03-04T15:50:49.370Z,11.85
2023-03-04T15:53:27.068Z,21.73
2023-03-04T15:55:55.766Z,29.75
2023-03-04T15:58:22.766Z,24.50
2023-03-04T16:00:51.310Z,16.48
2023-03-04T16:03:20.411Z,18.73
2023-03-04T16:05:49.673Z,125.90
2023-03-04T16:08:19.150Z,90.63
2023-03-04T16:10:50.231Z,43.53
2023-03-04T16:13:21.445Z,30.95
2023-03-04T16:15:48.921Z,20.60
2023-03-04T16:18:16.532Z,17.90
2023-03-04T16:20:45.987Z,18.27
2023-03-04T16:23:16.712Z,17.85
2023-03-04T16:25:45.095Z,18.63
2023-03-04T16:28:15.965Z,20.15
2023-03-04T16:30:44.569Z,20.25
2023-03-04T16:33:12.775Z,20.83
2023-03-04T16:35:40.080Z,21.70
2023-03-04T16:38:17.444Z,21.48
2023-03-04T16:40:44.482Z,19.65
2023-03-04T16:43:13.156Z,21.92
2023-03-04T16:45:40.103Z,22.95
2023-03-04T16:48:08.495Z,21.50
2023-03-04T16:50:36.468Z,20.73
2023-03-04T16:53:07.255Z,20.58
2023-03-04T16:55:34.467Z,18.98
2023-03-04T16:58:01.368Z,14.63
2023-03-04T17:00:29.113Z,12.45
2023-03-04T17:02:58.330Z,18.48
2023-03-04T17:05:29.076Z,21.05
2023-03-04T17:07:56.097Z,27.67
2023-03-04T17:10:24.028Z,32.20
2023-03-04T17:12:52.026Z,43.13
2023-03-04T17:15:19.645Z,57.53
2023-03-04T17:17:46.822Z,47.88
2023-03-04T17:20:16.049Z,67.68
2023-03-04T17:22:45.006Z,50.58
2023-03-04T17:25:13.046Z,31.38
2023-03-04T17:27:40.310Z,15.65
2023-03-04T17:30:11.371Z,13.48
2023-03-04T17:32:39.614Z,14.48
2023-03-04T17:35:10.652Z,25.95
2023-03-04T17:37:37.874Z,29.95
2023-03-04T17:40:08.752Z,20.35
2023-03-04T17:42:35.751Z,16.20
2023-03-04T17:45:02.809Z,15.98
2023-03-04T17:47:30.801Z,14.93
2023-03-04T17:49:57.747Z,16.70
2023-03-04T17:52:24.682Z,21.25
2023-03-04T17:54:51.808Z,49.38
2023-03-04T17:57:20.112Z,39.78
2023-03-04T17:59:47.163Z,23.02
2023-03-04T18:02:17.434Z,23.25
2023-03-04T18:04:46.917Z,26.58
2023-03-04T18:07:13.843Z,22.63
2023-03-04T18:09:40.879Z,22.70
2023-03-04T18:12:08.495Z,21.77
2023-03-04T18:14:36.787Z,24.02
2023-03-04T18:17:03.796Z,26.50
2023-03-04T18:19:30.914Z,34.63
2023-03-04T18:21:58.137Z,29.67
2023-03-04T18:24:25.161Z,33.75
2023-03-04T18:26:52.325Z,40.83
2023-03-04T18:29:19.617Z,38.10
2023-03-04T18:31:48.280Z,25.48
2023-03-04T18:34:15.321Z,20.20
2023-03-04T18:36:42.297Z,22.00
2023-03-04T18:39:09.545Z,29.70
2023-03-04T18:41:36.473Z,30.08
2023-03-04T18:44:03.514Z,35.88
2023-03-04T18:46:36.936Z,34.97
2023-03-04T18:49:08.756Z,27.23
2023-03-04T18:51:36.117Z,24.10
2023-03-04T18:54:03.219Z,22.75
2023-03-04T18:56:38.148Z,12.85
2023-03-04T18:59:08.863Z,12.70
2023-03-04T19:01:36.701Z,12.65
2023-03-04T19:04:05.747Z,12.23
2023-03-04T19:06:33.984Z,13.75
2023-03-04T19:09:01.332Z,14.15
2023-03-04T19:11:29.956Z,12.48
2023-03-04T19:13:56.905Z,14.23
2023-03-04T19:16:24.512Z,13.43
2023-03-04T19:18:51.532Z,13.40
2023-03-04T19:21:20.064Z,13.68
2023-03-04T19:23:47.058Z,19.15
2023-03-04T19:26:15.397Z,27.58
2023-03-04T19:28:42.583Z,29.60
2023-03-04T19:31:11.210Z,17.38
2023-03-04T19:33:39.689Z,16.25
2023-03-04T19:36:08.135Z,15.02
2023-03-04T19:38:37.358Z,16.63
2023-03-04T19:41:12.972Z,16.35
2023-03-04T19:43:40.651Z,17.42
2023-03-04T19:46:08.882Z,14.10
2023-03-04T19:48:37.101Z,14.77
2023-03-04T19:51:05.064Z,14.70
2023-03-04T19:53:34.606Z,14.50
2023-03-04T19:56:03.220Z,15.77
2023-03-04T19:58:30.102Z,14.95
2023-03-04T20:00:58.084Z,17.17
2023-03-04T20:03:25.455Z,19.45
2023-03-04T20:06:02.324Z,21.77
2023-03-04T20:08:29.525Z,22.42
2023-03-04T20:10:56.512Z,24.67
2023-03-04T20:13:24.888Z,26.75
2023-03-04T20:15:51.863Z,24.83
2023-03-04T20:18:19.005Z,26.40
2023-03-04T20:20:46.048Z,27.45
2023-03-04T20:23:12.987Z,26.33
2023-03-04T20:25:40.172Z,27.67
2023-03-04T20:28:07.126Z,27.02
2023-03-04T20:30:35.468Z,28.65
2023-03-04T20:33:02.465Z,28.35
2023-03-04T20:35:29.417Z,29.13
2023-03-04T20:37:56.544Z,27.98
2023-03-04T20:40:23.475Z,28.67
2023-03-04T20:42:50.407Z,25.85
2023-03-04T20:45:17.611Z,25.38
2023-03-04T20:47:45.947Z,25.30
2023-03-04T20:50:13.003Z,27.38
2023-03-04T20:52:40.172Z,28.70
2023-03-04T20:55:07.874Z,28.35
2023-03-04T20:57:35.010Z,28.98
2023-03-04T21:00:01.963Z,28.60
2023-03-04T21:02:28.938Z,29.67
2023-03-04T21:04:57.293Z,28.23
2023-03-04T21:07:26.270Z,28.95
2023-03-04T21:09:53.324Z,29.35
2023-03-04T21:12:20.297Z,29.40
2023-03-04T21:14:47.464Z,30.23
2023-03-04T21:17:14.536Z,29.42
2023-03-04T21:19:44.974Z,30.50
2023-03-04T21:22:16.543Z,28.67
2023-03-04T21:24:45.136Z,30.25
2023-03-04T21:27:13.116Z,25.77
2023-03-04T21:29:40.204Z,26.52
2023-03-04T21:32:23.190Z,26.55
2023-03-04T21:34:52.626Z,24.58
2023-03-04T21:37:21.563Z,24.92
2023-03-04T21:39:48.495Z,27.13
2023-03-04T21:42:15.599Z,25.45
2023-03-04T21:44:49.497Z,25.67
2023-03-04T21:47:17.292Z,28.17
2023-03-04T21:49:44.397Z,26.80
2023-03-04T21:52:11.335Z,26.75
2023-03-04T21:54:39.833Z,27.13
2023-03-04T21:57:06.778Z,26.80
2023-03-04T21:59:33.737Z,36.45
2023-03-04T22:02:01.724Z,31.85
2023-03-04T22:04:28.664Z,38.22
2023-03-04T22:06:55.669Z,37.00
2023-03-04T22:09:22.843Z,42.42
2023-03-04T22:11:53.457Z,41.28
2023-03-04T22:14:20.348Z,35.78
2023-03-04T22:16:55.012Z,33.85
2023-03-04T22:19:23.601Z,30.23
2023-03-04T22:21:51.529Z,200.15
2023-03-04T22:24:18.512Z,97.88
2023-03-04T22:26:45.830Z,90.25
2023-03-04T22:29:14.576Z,66.80
2023-03-04T22:31:41.641Z,59.08
2023-03-04T22:34:10.640Z,47.05
2023-03-04T22:36:40.208Z,49.78
2023-03-04T22:39:09.446Z,58.33
2023-03-04T22:41:36.825Z,44.92
2023-03-04T22:44:06.086Z,42.67
2023-03-04T22:46:38.005Z,38.17
2023-03-04T22:49:09.649Z,32.25
2023-03-04T22:51:38.096Z,33.90
2023-03-04T22:54:05.142Z,28.35
2023-03-04T22:56:36.605Z,24.48
2023-03-04T22:59:03.640Z,23.30
2023-03-04T23:01:31.083Z,22.60
2023-03-04T23:03:59.784Z,21.33
2023-03-04T23:06:30.091Z,21.63
2023-03-04T23:08:58.392Z,21.42
2023-03-04T23:11:28.518Z,21.88
2023-03-04T23:13:55.965Z,21.73
2023-03-04T23:16:24.407Z,22.30
2023-03-04T23:18:52.108Z,21.10
2023-03-04T23:21:22.815Z,21.52
2023-03-04T23:23:53.275Z,20.73
2023-03-04T23:26:22.130Z,20.65
2023-03-04T23:28:49.544Z,25.60
2023-03-04T23:31:17.590Z,19.70
2023-03-04T23:33:45.921Z,20.05
2023-03-04T23:36:15.569Z,18.65
2023-03-04T23:38:46.031Z,19.23
2023-03-04T23:41:13.926Z,237.13
2023-03-04T23:43:44.148Z,234.75
2023-03-04T23:46:12.059Z,218.32
2023-03-04T23:48:40.073Z,61.45
2023-03-04T23:51:08.568Z,28.92
2023-03-04T23:53:38.859Z,18.08
2023-03-04T23:56:09.665Z,17.25
2023-03-04T23:58:36.647Z,16.95
